sensor_id;sensor_type;location;lat;lon;timestamp;pressure;altitude;pressure_sealevel;temperature;humidity
69855;BME280;57146;48.140;16.304;2023-04-02T00:07:22;98453.13;;;9.71;69.27
69855;BME280;57146;48.140;16.304;2023-04-02T00:09:50;98448.94;;;9.70;69.44
69855;BME280;57146;48.140;16.304;2023-04-02T00:12:19;98460.69;;;9.72;69.14
69855;BME280;57146;48.140;16.304;2023-04-02T00:14:53;98456.06;;;9.69;69.20
69855;BME280;57146;48.140;16.304;2023-04-02T00:17:23;98457.59;;;9.70;69.35
69855;BME280;57146;48.140;16.304;2023-04-02T00:19:57;98453.44;;;9.69;69.01
69855;BME280;57146;48.140;16.304;2023-04-02T00:22:28;98452.06;;;9.63;69.45
69855;BME280;57146;48.140;16.304;2023-04-02T00:24:59;98457.00;;;9.65;69.82
69855;BME280;57146;48.140;16.304;2023-04-02T00:27:29;98461.03;;;9.62;70.03
69855;BME280;57146;48.140;16.304;2023-04-02T00:29:57;98463.50;;;9.58;70.69
69855;BME280;57146;48.140;16.304;2023-04-02T00:32:28;98460.41;;;9.56;70.82
69855;BME280;57146;48.140;16.304;2023-04-02T00:34:57;98469.22;;;9.52;71.44
69855;BME280;57146;48.140;16.304;2023-04-02T00:37:30;98469.41;;;9.47;72.07
69855;BME280;57146;48.140;16.304;2023-04-02T00:40:04;98454.25;;;9.44;72.21
69855;BME280;57146;48.140;16.304;2023-04-02T00:42:34;98462.44;;;9.42;72.66
69855;BME280;57146;48.140;16.304;2023-04-02T00:45:05;98465.06;;;9.42;72.26
69855;BME280;57146;48.140;16.304;2023-04-02T00:47:38;98462.75;;;9.41;72.07
69855;BME280;57146;48.140;16.304;2023-04-02T00:50:17;98466.00;;;9.38;72.24
69855;BME280;57146;48.140;16.304;2023-04-02T00:52:50;98469.41;;;9.38;72.03
69855;BME280;57146;48.140;16.304;2023-04-02T00:55:24;98463.56;;;9.32;72.20
69855;BME280;57146;48.140;16.304;2023-04-02T00:57:54;98466.19;;;9.32;72.38
69855;BME280;57146;48.140;16.304;2023-04-02T01:00:27;98472.97;;;9.33;72.05
69855;BME280;57146;48.140;16.304;2023-04-02T01:05:39;98468.66;;;9.29;72.35
69855;BME280;57146;48.140;16.304;2023-04-02T01:11:31;98464.94;;;9.30;72.21
69855;BME280;57146;48.140;16.304;2023-04-02T01:24:57;98475.28;;;9.26;72.05
69855;BME280;57146;48.140;16.304;2023-04-02T01:27:28;98469.56;;;9.24;72.15
69855;BME280;57146;48.140;16.304;2023-04-02T01:30:01;98478.22;;;9.25;72.11
69855;BME280;57146;48.140;16.304;2023-04-02T01:32:30;98476.66;;;9.24;72.66
69855;BME280;57146;48.140;16.304;2023-04-02T01:34:57;98475.44;;;9.21;72.75
69855;BME280;57146;48.140;16.304;2023-04-02T01:37:51;98478.38;;;9.20;72.99
69855;BME280;57146;48.140;16.304;2023-04-02T01:43:45;98476.53;;;9.20;73.01
69855;BME280;57146;48.140;16.304;2023-04-02T01:46:32;98470.50;;;9.20;73.31
69855;BME280;57146;48.140;16.304;2023-04-02T01:49:13;98471.59;;;9.19;72.92
69855;BME280;57146;48.140;16.304;2023-04-02T01:51:46;98470.81;;;9.18;73.09
69855;BME280;57146;48.140;16.304;2023-04-02T01:54:17;98473.44;;;9.18;72.94
69855;BME280;57146;48.140;16.304;2023-04-02T01:56:47;98466.34;;;9.19;73.49
69855;BME280;57146;48.140;16.304;2023-04-02T01:59:17;98472.34;;;9.19;73.41
69855;BME280;57146;48.140;16.304;2023-04-02T02:02:04;98469.72;;;9.19;73.15
69855;BME280;57146;48.140;16.304;2023-04-02T02:04:36;98476.69;;;9.15;73.22
69855;BME280;57146;48.140;16.304;2023-04-02T02:07:12;98481.47;;;9.13;73.49
69855;BME280;57146;48.140;16.304;2023-04-02T02:09:43;98484.09;;;9.13;73.04
69855;BME280;57146;48.140;16.304;2023-04-02T02:12:13;98489.34;;;9.13;73.39
69855;BME280;57146;48.140;16.304;2023-04-02T02:14:49;98484.56;;;9.15;73.02
69855;BME280;57146;48.140;16.304;2023-04-02T02:17:27;98485.63;;;9.14;73.04
69855;BME280;57146;48.140;16.304;2023-04-02T02:19:58;98490.75;;;9.19;73.17
69855;BME280;57146;48.140;16.304;2023-04-02T02:22:31;98489.97;;;9.19;72.95
69855;BME280;57146;48.140;16.304;2023-04-02T02:25:05;98484.25;;;9.17;72.86
69855;BME280;57146;48.140;16.304;2023-04-02T02:30:27;98491.66;;;9.15;73.32
69855;BME280;57146;48.140;16.304;2023-04-02T02:35:52;98488.25;;;9.14;73.47
69855;BME280;57146;48.140;16.304;2023-04-02T02:38:33;98487.81;;;9.12;74.05
69855;BME280;57146;48.140;16.304;2023-04-02T02:46:39;98484.69;;;9.10;74.36
69855;BME280;57146;48.140;16.304;2023-04-02T02:49:25;98485.63;;;9.05;74.23
69855;BME280;57146;48.140;16.304;2023-04-02T02:54:37;98485.63;;;8.97;74.48
69855;BME280;57146;48.140;16.304;2023-04-02T02:57:10;98488.72;;;8.99;74.81
69855;BME280;57146;48.140;16.304;2023-04-02T02:59:41;98476.97;;;8.96;75.08
69855;BME280;57146;48.140;16.304;2023-04-02T03:02:09;98478.66;;;8.92;74.89
69855;BME280;57146;48.140;16.304;2023-04-02T03:04:37;98484.69;;;8.93;75.17
69855;BME280;57146;48.140;16.304;2023-04-02T03:07:12;98477.44;;;8.90;75.69
69855;BME280;57146;48.140;16.304;2023-04-02T03:15:22;98485.44;;;8.84;76.17
69855;BME280;57146;48.140;16.304;2023-04-02T03:23:41;98473.41;;;8.83;76.34
69855;BME280;57146;48.140;16.304;2023-04-02T03:26:21;98482.81;;;8.84;76.41
69855;BME280;57146;48.140;16.304;2023-04-02T03:28:59;98483.16;;;8.83;76.13
69855;BME280;57146;48.140;16.304;2023-04-02T03:31:37;98490.25;;;8.82;76.64
69855;BME280;57146;48.140;16.304;2023-04-02T03:34:14;98490.53;;;8.81;76.60
69855;BME280;57146;48.140;16.304;2023-04-02T03:36:53;98481.13;;;8.80;76.69
69855;BME280;57146;48.140;16.304;2023-04-02T03:40:13;98485.59;;;8.79;76.44
69855;BME280;57146;48.140;16.304;2023-04-02T03:42:25;98484.69;;;8.75;77.13
69855;BME280;57146;48.140;16.304;2023-04-02T03:47:44;98493.44;;;8.71;77.35
69855;BME280;57146;48.140;16.304;2023-04-02T03:52:51;98498.69;;;8.71;77.74
69855;BME280;57146;48.140;16.304;2023-04-02T03:55:31;98506.28;;;8.72;77.78
69855;BME280;57146;48.140;16.304;2023-04-02T03:58:05;98503.03;;;8.75;77.95
69855;BME280;57146;48.140;16.304;2023-04-02T04:03:44;98513.53;;;8.75;77.79
69855;BME280;57146;48.140;16.304;2023-04-02T04:06:43;98527.13;;;8.77;77.64
69855;BME280;57146;48.140;16.304;2023-04-02T04:12:13;98532.38;;;8.77;77.17
69855;BME280;57146;48.140;16.304;2023-04-02T04:14:47;98537.31;;;8.79;77.69
69855;BME280;57146;48.140;16.304;2023-04-02T04:19:56;98535.31;;;8.76;77.70
69855;BME280;57146;48.140;16.304;2023-04-02T04:22:27;98548.75;;;8.83;77.69
69855;BME280;57146;48.140;16.304;2023-04-02T04:25:06;98559.41;;;8.86;77.24
69855;BME280;57146;48.140;16.304;2023-04-02T04:28:00;98553.69;;;8.84;77.45
69855;BME280;57146;48.140;16.304;2023-04-02T04:33:26;98562.81;;;8.87;78.16
69855;BME280;57146;48.140;16.304;2023-04-02T04:36:02;98566.81;;;8.84;78.44
69855;BME280;57146;48.140;16.304;2023-04-02T04:38:37;98568.50;;;8.89;78.41
69855;BME280;57146;48.140;16.304;2023-04-02T04:41:20;98573.00;;;8.88;78.59
69855;BME280;57146;48.140;16.304;2023-04-02T04:43:57;98575.00;;;8.92;78.95
69855;BME280;57146;48.140;16.304;2023-04-02T04:46:39;98577.19;;;8.90;78.88
69855;BME280;57146;48.140;16.304;2023-04-02T04:49:19;98582.72;;;8.88;79.37
69855;BME280;57146;48.140;16.304;2023-04-02T04:52:14;98595.38;;;8.86;79.39
69855;BME280;57146;48.140;16.304;2023-04-02T04:54:39;98588.28;;;8.86;79.72
69855;BME280;57146;48.140;16.304;2023-04-02T04:57:35;98591.69;;;8.87;79.91
69855;BME280;57146;48.140;16.304;2023-04-02T05:03:11;98597.03;;;8.82;79.96
69855;BME280;57146;48.140;16.304;2023-04-02T05:05:41;98601.84;;;8.80;80.24
69855;BME280;57146;48.140;16.304;2023-04-02T05:08:23;98604.16;;;8.81;80.32
69855;BME280;57146;48.140;16.304;2023-04-02T05:11:09;98604.16;;;8.81;80.42
69855;BME280;57146;48.140;16.304;2023-04-02T05:14:00;98607.44;;;8.87;80.09
69855;BME280;57146;48.140;16.304;2023-04-02T05:16:44;98610.81;;;8.87;80.02
69855;BME280;57146;48.140;16.304;2023-04-02T05:19:22;98614.53;;;8.86;80.53
69855;BME280;57146;48.140;16.304;2023-04-02T05:25:26;98613.94;;;8.90;80.15
69855;BME280;57146;48.140;16.304;2023-04-02T05:28:16;98607.59;;;8.91;80.62
69855;BME280;57146;48.140;16.304;2023-04-02T05:30:51;98618.53;;;8.93;80.10
69855;BME280;57146;48.140;16.304;2023-04-02T05:33:27;98613.94;;;8.90;80.65
69855;BME280;57146;48.140;16.304;2023-04-02T05:36:08;98617.78;;;8.92;80.26
69855;BME280;57146;48.140;16.304;2023-04-02T05:38:46;98615.16;;;8.92;79.84
69855;BME280;57146;48.140;16.304;2023-04-02T05:41:26;98617.91;;;8.87;80.14
69855;BME280;57146;48.140;16.304;2023-04-02T05:44:09;98621.00;;;8.89;80.09
69855;BME280;57146;48.140;16.304;2023-04-02T05:46:48;98620.22;;;8.88;79.92
69855;BME280;57146;48.140;16.304;2023-04-02T05:49:25;98621.00;;;8.89;80.34
69855;BME280;57146;48.140;16.304;2023-04-02T05:51:58;98633.84;;;8.91;80.67
69855;BME280;57146;48.140;16.304;2023-04-02T05:54:46;98632.31;;;8.90;81.09
69855;BME280;57146;48.140;16.304;2023-04-02T05:57:30;98641.22;;;8.88;81.61
69855;BME280;57146;48.140;16.304;2023-04-02T06:00:22;98632.75;;;8.92;82.18
69855;BME280;57146;48.140;16.304;2023-04-02T06:03:01;98628.59;;;8.91;81.95
69855;BME280;57146;48.140;16.304;2023-04-02T06:05:34;98634.13;;;8.89;82.11
69855;BME280;57146;48.140;16.304;2023-04-02T06:08:10;98641.53;;;8.87;82.63
69855;BME280;57146;48.140;16.304;2023-04-02T06:10:50;98636.91;;;8.84;83.19
69855;BME280;57146;48.140;16.304;2023-04-02T06:13:24;98639.84;;;8.82;83.08
69855;BME280;57146;48.140;16.304;2023-04-02T06:15:51;98644.28;;;8.82;84.19
69855;BME280;57146;48.140;16.304;2023-04-02T06:18:32;98652.97;;;8.82;83.33
69855;BME280;57146;48.140;16.304;2023-04-02T06:21:02;98647.72;;;8.82;84.40
69855;BME280;57146;48.140;16.304;2023-04-02T06:23:40;98652.66;;;8.84;84.17
69855;BME280;57146;48.140;16.304;2023-04-02T06:29:13;98661.78;;;8.86;85.41
69855;BME280;57146;48.140;16.304;2023-04-02T06:31:54;98655.28;;;8.84;84.90
69855;BME280;57146;48.140;16.304;2023-04-02T06:34:25;98653.72;;;8.83;85.21
69855;BME280;57146;48.140;16.304;2023-04-02T06:40:03;98663.91;;;8.84;85.59
69855;BME280;57146;48.140;16.304;2023-04-02T06:42:36;98675.66;;;8.87;86.49
69855;BME280;57146;48.140;16.304;2023-04-02T06:45:37;98665.34;;;8.91;86.03
69855;BME280;57146;48.140;16.304;2023-04-02T06:48:26;98671.53;;;8.95;86.20
69855;BME280;57146;48.140;16.304;2023-04-02T06:51:06;98673.06;;;8.96;85.32
69855;BME280;57146;48.140;16.304;2023-04-02T06:53:40;98680.06;;;9.00;85.04
69855;BME280;57146;48.140;16.304;2023-04-02T06:58:58;98678.69;;;9.11;85.29
69855;BME280;57146;48.140;16.304;2023-04-02T07:01:29;98675.16;;;9.16;85.55
69855;BME280;57146;48.140;16.304;2023-04-02T07:03:58;98685.81;;;9.20;84.65
69855;BME280;57146;48.140;16.304;2023-04-02T07:06:39;98686.13;;;9.18;84.19
69855;BME280;57146;48.140;16.304;2023-04-02T07:09:10;98672.53;;;9.25;84.75
69855;BME280;57146;48.140;16.304;2023-04-02T07:11:40;98679.53;;;9.38;83.52
69855;BME280;57146;48.140;16.304;2023-04-02T07:14:12;98685.28;;;9.49;83.35
69855;BME280;57146;48.140;16.304;2023-04-02T07:16:41;98684.06;;;9.55;83.44
69855;BME280;57146;48.140;16.304;2023-04-02T07:19:18;98682.69;;;9.66;83.27
69855;BME280;57146;48.140;16.304;2023-04-02T07:21:47;98680.25;;;9.78;81.71
69855;BME280;57146;48.140;16.304;2023-04-02T07:24:15;98690.44;;;9.80;80.60
69855;BME280;57146;48.140;16.304;2023-04-02T07:26:43;98695.22;;;9.78;81.72
69855;BME280;57146;48.140;16.304;2023-04-02T07:29:14;98697.38;;;9.84;81.20
69855;BME280;57146;48.140;16.304;2023-04-02T07:31:42;98700.31;;;9.74;80.96
69855;BME280;57146;48.140;16.304;2023-04-02T07:34:09;98712.06;;;9.68;81.61
69855;BME280;57146;48.140;16.304;2023-04-02T07:36:36;98707.59;;;9.69;81.57
69855;BME280;57146;48.140;16.304;2023-04-02T07:39:05;98702.63;;;9.67;82.14
69855;BME280;57146;48.140;16.304;2023-04-02T07:41:49;98712.38;;;9.67;81.95
69855;BME280;57146;48.140;16.304;2023-04-02T07:44:17;98719.03;;;9.73;82.20
69855;BME280;57146;48.140;16.304;2023-04-02T07:46:44;98721.50;;;9.69;82.74
69855;BME280;57146;48.140;16.304;2023-04-02T07:49:11;98728.13;;;9.67;82.49
69855;BME280;57146;48.140;16.304;2023-04-02T07:51:38;98736.00;;;9.67;82.84
69855;BME280;57146;48.140;16.304;2023-04-02T07:54:05;98737.75;;;9.71;83.07
69855;BME280;57146;48.140;16.304;2023-04-02T07:56:32;98743.63;;;9.77;84.01
69855;BME280;57146;48.140;16.304;2023-04-02T07:58:59;98740.69;;;9.78;82.47
69855;BME280;57146;48.140;16.304;2023-04-02T08:01:26;98745.00;;;9.74;82.90
69855;BME280;57146;48.140;16.304;2023-04-02T08:03:55;98745.00;;;9.74;82.78
69855;BME280;57146;48.140;16.304;2023-04-02T08:06:24;98749.47;;;9.74;82.60
69855;BME280;57146;48.140;16.304;2023-04-02T08:08:52;98752.09;;;9.74;83.90
69855;BME280;57146;48.140;16.304;2023-04-02T08:11:19;98752.09;;;9.74;82.58
69855;BME280;57146;48.140;16.304;2023-04-02T08:13:46;98752.44;;;9.72;83.17
69855;BME280;57146;48.140;16.304;2023-04-02T08:16:13;98754.13;;;9.68;83.15
69855;BME280;57146;48.140;16.304;2023-04-02T08:18:42;98760.31;;;9.72;84.36
69855;BME280;57146;48.140;16.304;2023-04-02T08:21:10;98765.56;;;9.81;83.95
69855;BME280;57146;48.140;16.304;2023-04-02T08:23:37;98759.25;;;9.82;83.79
69855;BME280;57146;48.140;16.304;2023-04-02T08:26:04;98759.56;;;9.80;83.63
69855;BME280;57146;48.140;16.304;2023-04-02T08:28:33;98761.41;;;9.80;84.75
69855;BME280;57146;48.140;16.304;2023-04-02T08:31:01;98767.09;;;9.73;83.99
69855;BME280;57146;48.140;16.304;2023-04-02T08:33:28;98766.94;;;9.70;84.93
69855;BME280;57146;48.140;16.304;2023-04-02T08:35:55;98761.69;;;9.70;84.80
69855;BME280;57146;48.140;16.304;2023-04-02T08:38:22;98769.56;;;9.70;84.54
69855;BME280;57146;48.140;16.304;2023-04-02T08:40:51;98780.25;;;9.73;84.09
69855;BME280;57146;48.140;16.304;2023-04-02T08:48:50;98779.31;;;9.69;84.16
69855;BME280;57146;48.140;16.304;2023-04-02T08:51:27;98787.03;;;9.74;85.36
69855;BME280;57146;48.140;16.304;2023-04-02T08:54:24;98796.19;;;9.77;85.27
69855;BME280;57146;48.140;16.304;2023-04-02T08:57:19;98791.69;;;9.77;85.24
69855;BME280;57146;48.140;16.304;2023-04-02T09:00:41;98797.56;;;9.74;84.19
69855;BME280;57146;48.140;16.304;2023-04-02T09:02:48;98805.00;;;9.72;84.33
69855;BME280;57146;48.140;16.304;2023-04-02T09:05:26;98797.72;;;9.69;84.02
69855;BME280;57146;48.140;16.304;2023-04-02T09:07:57;98808.38;;;9.64;84.61
69855;BME280;57146;48.140;16.304;2023-04-02T09:10:40;98815.00;;;9.62;85.02
69855;BME280;57146;48.140;16.304;2023-04-02T09:13:39;98819.78;;;9.59;85.77
69855;BME280;57146;48.140;16.304;2023-04-02T09:16:15;98822.56;;;9.63;86.47
69855;BME280;57146;48.140;16.304;2023-04-02T09:18:44;98822.63;;;9.72;87.18
69855;BME280;57146;48.140;16.304;2023-04-02T09:23:48;98830.34;;;9.77;87.51
69855;BME280;57146;48.140;16.304;2023-04-02T09:26:22;98824.00;;;9.78;87.31
69855;BME280;57146;48.140;16.304;2023-04-02T09:31:42;98831.28;;;9.72;86.18
69855;BME280;57146;48.140;16.304;2023-04-02T09:34:34;98827.22;;;9.66;87.65
69855;BME280;57146;48.140;16.304;2023-04-02T09:37:08;98832.31;;;9.63;87.61
69855;BME280;57146;48.140;16.304;2023-04-02T09:39:38;98833.09;;;9.63;89.14
69855;BME280;57146;48.140;16.304;2023-04-02T09:42:49;98835.41;;;9.65;89.48
69855;BME280;57146;48.140;16.304;2023-04-02T09:47:46;98844.25;;;9.69;88.90
69855;BME280;57146;48.140;16.304;2023-04-02T09:50:23;98841.19;;;9.75;88.38
69855;BME280;57146;48.140;16.304;2023-04-02T09:52:51;98844.88;;;9.74;86.92
69855;BME280;57146;48.140;16.304;2023-04-02T09:55:20;98846.28;;;9.72;87.17
69855;BME280;57146;48.140;16.304;2023-04-02T09:57:49;98852.31;;;9.72;86.76
69855;BME280;57146;48.140;16.304;2023-04-02T10:00:22;98845.50;;;9.71;85.86
69855;BME280;57146;48.140;16.304;2023-04-02T10:03:05;98852.13;;;9.69;86.92
69855;BME280;57146;48.140;16.304;2023-04-02T10:05:36;98850.59;;;9.68;85.78
69855;BME280;57146;48.140;16.304;2023-04-02T10:08:17;98848.72;;;9.68;86.14
69855;BME280;57146;48.140;16.304;2023-04-02T10:10:49;98850.47;;;9.81;85.08
69855;BME280;57146;48.140;16.304;2023-04-02T10:13:27;98839.22;;;9.98;84.60
69855;BME280;57146;48.140;16.304;2023-04-02T10:16:18;98839.53;;;9.97;83.78
69855;BME280;57146;48.140;16.304;2023-04-02T10:18:56;98840.00;;;9.99;84.42
69855;BME280;57146;48.140;16.304;2023-04-02T10:21:31;98838.66;;;10.19;84.17
69855;BME280;57146;48.140;16.304;2023-04-02T10:23:59;98837.78;;;10.41;83.98
69855;BME280;57146;48.140;16.304;2023-04-02T10:26:40;98844.31;;;10.61;84.53
69855;BME280;57146;48.140;16.304;2023-04-02T10:29:17;98843.66;;;10.81;83.08
69855;BME280;57146;48.140;16.304;2023-04-02T10:45:41;98845.22;;;10.73;80.43
69855;BME280;57146;48.140;16.304;2023-04-02T10:51:40;98851.88;;;10.62;79.11
69855;BME280;57146;48.140;16.304;2023-04-02T10:54:31;98851.72;;;10.59;79.69
69855;BME280;57146;48.140;16.304;2023-04-02T10:57:41;98866.28;;;10.73;80.36
69855;BME280;57146;48.140;16.304;2023-04-02T11:08:31;98878.06;;;10.50;79.33
69855;BME280;57146;48.140;16.304;2023-04-02T11:11:14;98873.84;;;10.49;79.44
69855;BME280;57146;48.140;16.304;2023-04-02T11:16:48;98884.53;;;10.44;79.66
69855;BME280;57146;48.140;16.304;2023-04-02T11:21:43;98884.38;;;10.49;79.02
69855;BME280;57146;48.140;16.304;2023-04-02T11:24:28;98887.97;;;10.53;80.03
69855;BME280;57146;48.140;16.304;2023-04-02T11:29:30;98898.50;;;10.53;78.60
69855;BME280;57146;48.140;16.304;2023-04-02T11:32:39;98899.56;;;10.52;79.30
69855;BME280;57146;48.140;16.304;2023-04-02T11:40:56;98898.19;;;10.63;78.49
69855;BME280;57146;48.140;16.304;2023-04-02T11:46:02;98907.34;;;10.74;78.50
69855;BME280;57146;48.140;16.304;2023-04-02T11:48:35;98918.16;;;10.73;78.93
69855;BME280;57146;48.140;16.304;2023-04-02T11:53:49;98938.78;;;10.71;78.23
69855;BME280;57146;48.140;16.304;2023-04-02T11:56:21;98940.59;;;10.62;80.35
69855;BME280;57146;48.140;16.304;2023-04-02T11:59:06;98945.06;;;10.52;82.20
69855;BME280;57146;48.140;16.304;2023-04-02T12:09:57;98994.88;;;9.78;87.64
69855;BME280;57146;48.140;16.304;2023-04-02T12:12:31;99004.13;;;9.53;87.78
69855;BME280;57146;48.140;16.304;2023-04-02T12:15:00;99010.00;;;9.50;87.84
69855;BME280;57146;48.140;16.304;2023-04-02T12:17:37;99008.22;;;9.37;88.38
69855;BME280;57146;48.140;16.304;2023-04-02T12:22:34;99025.75;;;9.14;90.37
69855;BME280;57146;48.140;16.304;2023-04-02T12:25:31;99028.75;;;8.84;90.84
69855;BME280;57146;48.140;16.304;2023-04-02T12:28:15;99033.53;;;8.69;92.06
69855;BME280;57146;48.140;16.304;2023-04-02T12:30:43;99036.16;;;8.69;92.93
69855;BME280;57146;48.140;16.304;2023-04-02T12:35:42;99044.97;;;8.59;90.13
69855;BME280;57146;48.140;16.304;2023-04-02T12:38:25;99045.47;;;8.47;86.47
69855;BME280;57146;48.140;16.304;2023-04-02T12:40:57;99049.91;;;8.33;86.30
69855;BME280;57146;48.140;16.304;2023-04-02T12:43:33;99062.81;;;8.29;88.87
69855;BME280;57146;48.140;16.304;2023-04-02T12:46:03;99059.09;;;8.16;90.24
69855;BME280;57146;48.140;16.304;2023-04-02T12:48:32;99057.22;;;8.17;91.26
69855;BME280;57146;48.140;16.304;2023-04-02T12:51:00;99065.19;;;8.12;93.75
69855;BME280;57146;48.140;16.304;2023-04-02T12:53:37;99065.94;;;7.99;94.44
69855;BME280;57146;48.140;16.304;2023-04-02T12:56:05;99069.25;;;8.04;93.09
69855;BME280;57146;48.140;16.304;2023-04-02T12:58:40;99072.75;;;8.13;94.44
69855;BME280;57146;48.140;16.304;2023-04-02T13:01:15;99072.50;;;8.15;94.26
69855;BME280;57146;48.140;16.304;2023-04-02T13:03:43;99073.25;;;8.15;95.53
69855;BME280;57146;48.140;16.304;2023-04-02T13:06:23;99079.34;;;8.11;95.93
69855;BME280;57146;48.140;16.304;2023-04-02T13:08:50;99077.84;;;8.24;95.82
69855;BME280;57146;48.140;16.304;2023-04-02T13:11:18;99086.97;;;8.26;95.30
69855;BME280;57146;48.140;16.304;2023-04-02T13:13:46;99081.59;;;8.18;94.99
69855;BME280;57146;48.140;16.304;2023-04-02T13:18:42;99098.47;;;7.98;97.08
69855;BME280;57146;48.140;16.304;2023-04-02T13:23:43;99098.63;;;8.20;94.56
69855;BME280;57146;48.140;16.304;2023-04-02T13:26:17;99102.78;;;8.21;91.84
69855;BME280;57146;48.140;16.304;2023-04-02T13:29:13;99106.16;;;8.08;91.40
69855;BME280;57146;48.140;16.304;2023-04-02T13:31:44;99110.00;;;7.97;93.50
69855;BME280;57146;48.140;16.304;2023-04-02T13:34:12;99105.97;;;8.04;94.03
69855;BME280;57146;48.140;16.304;2023-04-02T13:36:41;99108.84;;;8.03;91.23
69855;BME280;57146;48.140;16.304;2023-04-02T13:39:08;99110.69;;;8.02;90.91
69855;BME280;57146;48.140;16.304;2023-04-02T13:41:40;99108.84;;;8.03;90.08
69855;BME280;57146;48.140;16.304;2023-04-02T13:44:17;99111.78;;;8.01;91.00
69855;BME280;57146;48.140;16.304;2023-04-02T13:46:44;99112.91;;;7.95;88.26
69855;BME280;57146;48.140;16.304;2023-04-02T13:49:13;99116.09;;;7.92;89.17
69855;BME280;57146;48.140;16.304;2023-04-02T13:52:04;99118.91;;;7.96;90.46
69855;BME280;57146;48.140;16.304;2023-04-02T13:54:54;99120.78;;;7.95;90.34
69855;BME280;57146;48.140;16.304;2023-04-02T13:57:20;99118.91;;;7.96;89.61
69855;BME280;57146;48.140;16.304;2023-04-02T13:59:48;99120.97;;;7.99;91.26
69855;BME280;57146;48.140;16.304;2023-04-02T14:02:17;99125.34;;;8.03;90.82
69855;BME280;57146;48.140;16.304;2023-04-02T14:04:55;99119.19;;;8.13;91.02
69855;BME280;57146;48.140;16.304;2023-04-02T14:15:29;99127.06;;;8.46;90.53
69855;BME280;57146;48.140;16.304;2023-04-02T14:21:21;99119.41;;;8.49;88.37
69855;BME280;57146;48.140;16.304;2023-04-02T14:26:49;99126.94;;;8.37;88.23
69855;BME280;57146;48.140;16.304;2023-04-02T14:35:46;99136.72;;;8.31;90.82
69855;BME280;57146;48.140;16.304;2023-04-02T14:38:40;99127.09;;;8.27;91.74
69855;BME280;57146;48.140;16.304;2023-04-02T14:41:23;99135.16;;;8.30;90.79
69855;BME280;57146;48.140;16.304;2023-04-02T14:44:01;99142.06;;;8.26;90.16
69855;BME280;57146;48.140;16.304;2023-04-02T14:46:35;99139.91;;;8.28;90.01
69855;BME280;57146;48.140;16.304;2023-04-02T14:49:24;99141.75;;;8.28;91.30
69855;BME280;57146;48.140;16.304;2023-04-02T14:51:58;99144.38;;;8.28;90.65
69855;BME280;57146;48.140;16.304;2023-04-02T14:54:37;99145.44;;;8.27;89.89
69855;BME280;57146;48.140;16.304;2023-04-02T14:59:45;99151.47;;;8.27;87.94
69855;BME280;57146;48.140;16.304;2023-04-02T15:07:47;99159.34;;;8.27;88.12
69855;BME280;57146;48.140;16.304;2023-04-02T15:10:35;99157.22;;;8.29;88.30
69855;BME280;57146;48.140;16.304;2023-04-02T15:13:11;99158.47;;;8.32;87.55
69855;BME280;57146;48.140;16.304;2023-04-02T15:15:57;99170.03;;;8.31;86.88
69855;BME280;57146;48.140;16.304;2023-04-02T15:18:29;99166.63;;;8.30;87.25
69855;BME280;57146;48.140;16.304;2023-04-02T15:23:58;99164.22;;;8.34;85.10
69855;BME280;57146;48.140;16.304;2023-04-02T15:38:15;99187.81;;;8.34;84.21
69855;BME280;57146;48.140;16.304;2023-04-02T15:41:12;99197.03;;;8.31;84.17
69855;BME280;57146;48.140;16.304;2023-04-02T15:44:14;99201.38;;;8.22;86.53
69855;BME280;57146;48.140;16.304;2023-04-02T15:49:41;99213.13;;;8.25;83.40
69855;BME280;57146;48.140;16.304;2023-04-02T15:52:30;99217.13;;;8.22;84.00
69855;BME280;57146;48.140;16.304;2023-04-02T16:05:45;99246.09;;;8.12;82.01
69855;BME280;57146;48.140;16.304;2023-04-02T16:11:14;99258.69;;;8.10;80.54
69855;BME280;57146;48.140;16.304;2023-04-02T16:13:41;99266.34;;;8.06;80.22
69855;BME280;57146;48.140;16.304;2023-04-02T16:16:28;99269.53;;;8.03;78.40
69855;BME280;57146;48.140;16.304;2023-04-02T16:19:02;99273.78;;;7.99;81.33
69855;BME280;57146;48.140;16.304;2023-04-02T16:22:29;99285.44;;;8.12;77.96
69855;BME280;57146;48.140;16.304;2023-04-02T16:24:39;99286.00;;;8.09;76.76
69855;BME280;57146;48.140;16.304;2023-04-02T16:27:25;99289.72;;;8.03;76.71
69855;BME280;57146;48.140;16.304;2023-04-02T16:30:41;99305.03;;;7.96;76.53
69855;BME280;57146;48.140;16.304;2023-04-02T16:39:24;99313.41;;;7.74;72.50
69855;BME280;57146;48.140;16.304;2023-04-02T16:45:05;99315.28;;;7.68;74.28
69855;BME280;57146;48.140;16.304;2023-04-02T16:48:17;99318.50;;;7.65;73.50
69855;BME280;57146;48.140;16.304;2023-04-02T16:54:10;99340.81;;;7.57;74.82
69855;BME280;57146;48.140;16.304;2023-04-02T17:02:59;99352.69;;;7.50;76.13
69855;BME280;57146;48.140;16.304;2023-04-02T17:05:35;99365.31;;;7.42;77.87
69855;BME280;57146;48.140;16.304;2023-04-02T17:08:16;99373.19;;;7.42;76.38
69855;BME280;57146;48.140;16.304;2023-04-02T17:10:56;99382.34;;;7.11;77.86
69855;BME280;57146;48.140;16.304;2023-04-02T17:18:37;99392.63;;;7.02;75.55
69855;BME280;57146;48.140;16.304;2023-04-02T17:21:11;99398.34;;;7.04;75.17
69855;BME280;57146;48.140;16.304;2023-04-02T17:23:49;99405.25;;;6.90;77.10
69855;BME280;57146;48.140;16.304;2023-04-02T17:26:21;99421.81;;;6.75;76.60
69855;BME280;57146;48.140;16.304;2023-04-02T17:28:50;99416.34;;;6.77;77.49
69855;BME280;57146;48.140;16.304;2023-04-02T17:31:23;99427.81;;;6.81;76.30
69855;BME280;57146;48.140;16.304;2023-04-02T17:33:52;99429.72;;;6.65;74.78
69855;BME280;57146;48.140;16.304;2023-04-02T17:39:21;99443.66;;;6.55;73.32
69855;BME280;57146;48.140;16.304;2023-04-02T17:42:06;99456.19;;;6.53;74.72
69855;BME280;57146;48.140;16.304;2023-04-02T17:45:02;99461.44;;;6.53;74.18
69855;BME280;57146;48.140;16.304;2023-04-02T17:53:15;99488.13;;;6.50;71.41
69855;BME280;57146;48.140;16.304;2023-04-02T17:59:04;99504.38;;;6.37;70.33
69855;BME280;57146;48.140;16.304;2023-04-02T18:10:24;99531.31;;;6.22;68.52